sensor_id;sensor_type;location;lat;lon;timestamp;pressure;altitude;pressure_sealevel;temperature;humidity
47983;BME280;33751;50.816;-1.214;2023-12-20T00:02:04;102300.67;;;26.41;100.00
47983;BME280;33751;50.816;-1.214;2023-12-20T00:04:31;102302.37;;;25.93;100.00
47983;BME280;33751;50.816;-1.214;2023-12-20T00:06:57;102304.65;;;26.13;100.00
47983;BME280;33751;50.816;-1.214;2023-12-20T00:09:24;102303.18;;;25.91;100.00
47983;BME280;33751;50.816;-1.214;2023-12-20T00:11:50;102317.86;;;26.29;100.00
47983;BME280;33751;50.816;-1.214;2023-12-20T00:14:17;102323.09;;;26.11;100.00
47983;BME280;33751;50.816;-1.214;2023-12-20T00:16:43;102325.68;;;25.97;100.00
47983;BME280;33751;50.816;-1.214;2023-12-20T00:19:10;102328.32;;;25.77;100.00
47983;BME280;33751;50.816;-1.214;2023-12-20T00:21:36;102332.52;;;25.71;100.00
47983;BME280;33751;50.816;-1.214;2023-12-20T00:24:04;102336.64;;;25.85;100.00
47983;BME280;33751;50.816;-1.214;2023-12-20T00:26:30;102332.70;;;25.71;100.00
47983;BME280;33751;50.816;-1.214;2023-12-20T00:28:58;102331.15;;;25.59;100.00
47983;BME280;33751;50.816;-1.214;2023-12-20T00:31:25;102331.51;;;26.09;100.00
47983;BME280;33751;50.816;-1.214;2023-12-20T00:33:52;102335.28;;;25.56;100.00
47983;BME280;33751;50.816;-1.214;2023-12-20T00:36:19;102332.48;;;26.02;100.00
47983;BME280;33751;50.816;-1.214;2023-12-20T00:38:46;102327.61;;;25.50;100.00
47983;BME280;33751;50.816;-1.214;2023-12-20T00:41:13;102317.51;;;25.54;100.00
47983;BME280;33751;50.816;-1.214;2023-12-20T00:43:40;102312.63;;;25.78;100.00
47983;BME280;33751;50.816;-1.214;2023-12-20T00:46:06;102303.15;;;25.64;100.00
47983;BME280;33751;50.816;-1.214;2023-12-20T00:48:33;102299.01;;;25.37;100.00
47983;BME280;33751;50.816;-1.214;2023-12-20T00:51:00;102296.67;;;25.72;100.00
47983;BME280;33751;50.816;-1.214;2023-12-20T00:53:27;102298.09;;;26.02;100.00
47983;BME280;33751;50.816;-1.214;2023-12-20T00:55:54;102298.66;;;25.52;100.00
47983;BME280;33751;50.816;-1.214;2023-12-20T00:58:20;102297.91;;;25.80;100.00
47983;BME280;33751;50.816;-1.214;2023-12-20T01:00:47;102297.39;;;25.56;100.00
47983;BME280;33751;50.816;-1.214;2023-12-20T01:03:14;102299.56;;;25.69;100.00
47983;BME280;33751;50.816;-1.214;2023-12-20T01:05:41;102299.33;;;25.92;100.00
47983;BME280;33751;50.816;-1.214;2023-12-20T01:08:07;102299.87;;;25.88;100.00
47983;BME280;33751;50.816;-1.214;2023-12-20T01:10:33;102302.26;;;25.66;100.00
47983;BME280;33751;50.816;-1.214;2023-12-20T01:13:00;102300.87;;;25.57;100.00
47983;BME280;33751;50.816;-1.214;2023-12-20T01:15:27;102298.79;;;25.49;100.00
47983;BME280;33751;50.816;-1.214;2023-12-20T01:17:54;102296.62;;;25.24;100.00
47983;BME280;33751;50.816;-1.214;2023-12-20T01:20:21;102289.83;;;25.61;100.00
47983;BME280;33751;50.816;-1.214;2023-12-20T01:22:48;102280.49;;;25.81;100.00
47983;BME280;33751;50.816;-1.214;2023-12-20T01:25:14;102277.45;;;25.69;100.00
47983;BME280;33751;50.816;-1.214;2023-12-20T01:27:41;102271.36;;;25.60;100.00
47983;BME280;33751;50.816;-1.214;2023-12-20T01:30:09;102270.09;;;25.60;100.00
47983;BME280;33751;50.816;-1.214;2023-12-20T01:32:35;102271.80;;;25.71;100.00
47983;BME280;33751;50.816;-1.214;2023-12-20T01:35:04;102272.52;;;25.25;100.00
47983;BME280;33751;50.816;-1.214;2023-12-20T01:37:30;102272.38;;;25.18;100.00
47983;BME280;33751;50.816;-1.214;2023-12-20T01:39:57;102276.41;;;25.73;100.00
47983;BME280;33751;50.816;-1.214;2023-12-20T01:42:24;102272.35;;;25.60;100.00
47983;BME280;33751;50.816;-1.214;2023-12-20T01:44:51;102271.22;;;25.63;100.00
47983;BME280;33751;50.816;-1.214;2023-12-20T01:47:18;102277.02;;;25.60;100.00
47983;BME280;33751;50.816;-1.214;2023-12-20T01:49:45;102282.12;;;25.37;100.00
47983;BME280;33751;50.816;-1.214;2023-12-20T01:52:12;102277.59;;;24.98;100.00
47983;BME280;33751;50.816;-1.214;2023-12-20T01:54:40;102276.54;;;25.00;100.00
47983;BME280;33751;50.816;-1.214;2023-12-20T01:57:09;102277.23;;;25.57;100.00
47983;BME280;33751;50.816;-1.214;2023-12-20T01:59:37;102276.98;;;25.55;100.00
47983;BME280;33751;50.816;-1.214;2023-12-20T02:02:07;102270.70;;;25.60;100.00
47983;BME280;33751;50.816;-1.214;2023-12-20T02:04:34;102268.77;;;25.39;100.00
47983;BME280;33751;50.816;-1.214;2023-12-20T02:07:02;102265.30;;;25.50;100.00
47983;BME280;33751;50.816;-1.214;2023-12-20T02:09:30;102264.22;;;25.27;100.00
47983;BME280;33751;50.816;-1.214;2023-12-20T02:11:56;102263.19;;;25.38;100.00
47983;BME280;33751;50.816;-1.214;2023-12-20T02:14:23;102262.29;;;25.45;100.00
47983;BME280;33751;50.816;-1.214;2023-12-20T02:16:49;102266.59;;;25.40;100.00
47983;BME280;33751;50.816;-1.214;2023-12-20T02:19:17;102270.36;;;25.34;100.00
47983;BME280;33751;50.816;-1.214;2023-12-20T02:21:46;102271.36;;;24.65;100.00
47983;BME280;33751;50.816;-1.214;2023-12-20T02:24:13;102276.31;;;25.08;100.00
47983;BME280;33751;50.816;-1.214;2023-12-20T02:26:40;102279.55;;;24.65;100.00
47983;BME280;33751;50.816;-1.214;2023-12-20T02:29:07;102286.71;;;25.19;100.00
47983;BME280;33751;50.816;-1.214;2023-12-20T02:31:33;102281.51;;;25.18;100.00
47983;BME280;33751;50.816;-1.214;2023-12-20T02:34:00;102279.47;;;25.18;100.00
47983;BME280;33751;50.816;-1.214;2023-12-20T02:36:26;102275.43;;;24.94;100.00
47983;BME280;33751;50.816;-1.214;2023-12-20T02:38:53;102277.33;;;25.11;100.00
47983;BME280;33751;50.816;-1.214;2023-12-20T02:41:19;102274.96;;;25.02;100.00
47983;BME280;33751;50.816;-1.214;2023-12-20T02:43:46;102266.52;;;25.13;100.00
47983;BME280;33751;50.816;-1.214;2023-12-20T02:46:14;102267.33;;;25.11;100.00
47983;BME280;33751;50.816;-1.214;2023-12-20T02:48:42;102268.59;;;24.86;100.00
47983;BME280;33751;50.816;-1.214;2023-12-20T02:51:08;102268.79;;;25.12;100.00
47983;BME280;33751;50.816;-1.214;2023-12-20T02:53:35;102268.21;;;24.91;100.00
47983;BME280;33751;50.816;-1.214;2023-12-20T02:56:01;102265.16;;;25.08;100.00
47983;BME280;33751;50.816;-1.214;2023-12-20T02:58:28;102269.27;;;25.07;100.00
47983;BME280;33751;50.816;-1.214;2023-12-20T03:00:55;102264.77;;;24.87;100.00
47983;BME280;33751;50.816;-1.214;2023-12-20T03:03:21;102270.18;;;24.89;100.00
47983;BME280;33751;50.816;-1.214;2023-12-20T03:05:48;102268.60;;;25.25;100.00
47983;BME280;33751;50.816;-1.214;2023-12-20T03:08:14;102269.82;;;25.04;100.00
47983;BME280;33751;50.816;-1.214;2023-12-20T03:10:41;102271.83;;;25.06;100.00
47983;BME280;33751;50.816;-1.214;2023-12-20T03:13:07;102276.86;;;25.13;100.00
47983;BME280;33751;50.816;-1.214;2023-12-20T03:15:34;102275.69;;;25.06;100.00
47983;BME280;33751;50.816;-1.214;2023-12-20T03:18:00;102267.98;;;25.55;100.00
47983;BME280;33751;50.816;-1.214;2023-12-20T03:20:27;102264.21;;;25.07;100.00
47983;BME280;33751;50.816;-1.214;2023-12-20T03:22:54;102263.19;;;25.12;100.00
47983;BME280;33751;50.816;-1.214;2023-12-20T03:25:21;102261.39;;;24.89;100.00
47983;BME280;33751;50.816;-1.214;2023-12-20T03:27:47;102258.77;;;24.81;100.00
47983;BME280;33751;50.816;-1.214;2023-12-20T03:30:14;102257.80;;;25.08;100.00
47983;BME280;33751;50.816;-1.214;2023-12-20T03:32:41;102259.45;;;24.87;100.00
47983;BME280;33751;50.816;-1.214;2023-12-20T03:35:09;102251.38;;;25.07;100.00
47983;BME280;33751;50.816;-1.214;2023-12-20T03:37:36;102246.88;;;24.84;100.00
47983;BME280;33751;50.816;-1.214;2023-12-20T03:40:04;102239.83;;;25.36;100.00
47983;BME280;33751;50.816;-1.214;2023-12-20T03:42:30;102234.59;;;24.81;100.00
47983;BME280;33751;50.816;-1.214;2023-12-20T03:44:57;102233.77;;;25.09;100.00
47983;BME280;33751;50.816;-1.214;2023-12-20T03:47:23;102237.92;;;25.14;100.00
47983;BME280;33751;50.816;-1.214;2023-12-20T03:49:51;102242.46;;;25.07;100.00
47983;BME280;33751;50.816;-1.214;2023-12-20T03:52:17;102247.90;;;24.84;100.00
47983;BME280;33751;50.816;-1.214;2023-12-20T03:54:44;102254.05;;;24.79;100.00
47983;BME280;33751;50.816;-1.214;2023-12-20T03:57:11;102251.66;;;25.14;100.00
47983;BME280;33751;50.816;-1.214;2023-12-20T03:59:37;102256.87;;;24.91;100.00
47983;BME280;33751;50.816;-1.214;2023-12-20T04:02:05;102258.15;;;24.90;100.00
47983;BME280;33751;50.816;-1.214;2023-12-20T04:04:31;102264.27;;;24.86;100.00
47983;BME280;33751;50.816;-1.214;2023-12-20T04:06:59;102274.05;;;25.09;100.00
47983;BME280;33751;50.816;-1.214;2023-12-20T04:09:25;102279.28;;;24.79;100.00
47983;BME280;33751;50.816;-1.214;2023-12-20T04:11:52;102275.31;;;24.82;100.00
47983;BME280;33751;50.816;-1.214;2023-12-20T04:14:18;102270.13;;;24.87;100.00
47983;BME280;33751;50.816;-1.214;2023-12-20T04:16:45;102257.73;;;25.10;100.00
47983;BME280;33751;50.816;-1.214;2023-12-20T04:19:11;102254.24;;;25.03;100.00
47983;BME280;33751;50.816;-1.214;2023-12-20T04:21:38;102246.56;;;24.73;100.00
47983;BME280;33751;50.816;-1.214;2023-12-20T04:24:05;102245.78;;;24.69;100.00
47983;BME280;33751;50.816;-1.214;2023-12-20T04:26:31;102244.10;;;24.73;100.00
47983;BME280;33751;50.816;-1.214;2023-12-20T04:28:58;102248.00;;;25.04;100.00
47983;BME280;33751;50.816;-1.214;2023-12-20T04:31:24;102254.81;;;24.78;100.00
47983;BME280;33751;50.816;-1.214;2023-12-20T04:33:51;102261.27;;;24.78;100.00
47983;BME280;33751;50.816;-1.214;2023-12-20T04:36:18;102255.34;;;24.92;100.00
47983;BME280;33751;50.816;-1.214;2023-12-20T04:38:45;102256.10;;;24.92;100.00
47983;BME280;33751;50.816;-1.214;2023-12-20T04:41:11;102257.83;;;24.73;100.00
47983;BME280;33751;50.816;-1.214;2023-12-20T04:43:38;102253.66;;;24.65;100.00
47983;BME280;33751;50.816;-1.214;2023-12-20T04:46:04;102240.88;;;24.65;100.00
47983;BME280;33751;50.816;-1.214;2023-12-20T04:48:31;102240.37;;;24.69;100.00
47983;BME280;33751;50.816;-1.214;2023-12-20T04:50:57;102240.48;;;24.62;100.00
47983;BME280;33751;50.816;-1.214;2023-12-20T04:53:24;102240.73;;;24.86;100.00
47983;BME280;33751;50.816;-1.214;2023-12-20T04:55:51;102239.00;;;24.66;100.00
47983;BME280;33751;50.816;-1.214;2023-12-20T04:58:18;102241.87;;;24.83;100.00
47983;BME280;33751;50.816;-1.214;2023-12-20T05:00:44;102244.43;;;24.74;100.00
47983;BME280;33751;50.816;-1.214;2023-12-20T05:03:11;102241.38;;;25.08;100.00
47983;BME280;33751;50.816;-1.214;2023-12-20T05:05:37;102239.35;;;25.01;100.00
47983;BME280;33751;50.816;-1.214;2023-12-20T05:08:04;102240.22;;;24.76;100.00
47983;BME280;33751;50.816;-1.214;2023-12-20T05:10:31;102236.58;;;24.59;100.00
47983;BME280;33751;50.816;-1.214;2023-12-20T05:12:57;102237.62;;;24.54;100.00
47983;BME280;33751;50.816;-1.214;2023-12-20T05:15:24;102239.16;;;24.72;100.00
47983;BME280;33751;50.816;-1.214;2023-12-20T05:17:51;102241.31;;;24.72;100.00
47983;BME280;33751;50.816;-1.214;2023-12-20T05:20:18;102245.61;;;24.68;100.00
47983;BME280;33751;50.816;-1.214;2023-12-20T05:22:44;102245.90;;;24.70;100.00
47983;BME280;33751;50.816;-1.214;2023-12-20T05:25:11;102245.45;;;24.74;100.00
47983;BME280;33751;50.816;-1.214;2023-12-20T05:27:38;102245.30;;;24.70;100.00
47983;BME280;33751;50.816;-1.214;2023-12-20T05:30:06;102246.66;;;24.90;100.00
47983;BME280;33751;50.816;-1.214;2023-12-20T05:32:33;102249.21;;;24.42;100.00
47983;BME280;33751;50.816;-1.214;2023-12-20T05:34:59;102248.70;;;24.36;100.00
47983;BME280;33751;50.816;-1.214;2023-12-20T05:37:26;102255.48;;;24.58;100.00
47983;BME280;33751;50.816;-1.214;2023-12-20T05:39:52;102264.27;;;24.60;100.00
47983;BME280;33751;50.816;-1.214;2023-12-20T05:42:19;102267.61;;;24.40;100.00
47983;BME280;33751;50.816;-1.214;2023-12-20T05:44:46;102263.75;;;24.57;100.00
47983;BME280;33751;50.816;-1.214;2023-12-20T05:47:12;102254.31;;;24.61;100.00
47983;BME280;33751;50.816;-1.214;2023-12-20T05:49:39;102250.15;;;24.34;100.00
47983;BME280;33751;50.816;-1.214;2023-12-20T05:52:06;102243.00;;;24.52;100.00
47983;BME280;33751;50.816;-1.214;2023-12-20T05:54:33;102245.12;;;24.62;100.00
47983;BME280;33751;50.816;-1.214;2023-12-20T05:56:59;102238.02;;;24.90;100.00
47983;BME280;33751;50.816;-1.214;2023-12-20T05:59:26;102233.40;;;24.54;100.00
47983;BME280;33751;50.816;-1.214;2023-12-20T06:01:52;102234.86;;;24.39;100.00
47983;BME280;33751;50.816;-1.214;2023-12-20T06:04:19;102232.58;;;24.61;100.00
47983;BME280;33751;50.816;-1.214;2023-12-20T06:06:46;102226.88;;;24.62;100.00
47983;BME280;33751;50.816;-1.214;2023-12-20T06:09:12;102221.81;;;24.68;100.00
47983;BME280;33751;50.816;-1.214;2023-12-20T06:11:39;102221.20;;;24.47;100.00
47983;BME280;33751;50.816;-1.214;2023-12-20T06:14:06;102220.84;;;24.68;100.00
47983;BME280;33751;50.816;-1.214;2023-12-20T06:16:33;102221.32;;;24.36;100.00
47983;BME280;33751;50.816;-1.214;2023-12-20T06:19:00;102224.42;;;24.61;100.00
47983;BME280;33751;50.816;-1.214;2023-12-20T06:21:27;102227.77;;;24.60;100.00
47983;BME280;33751;50.816;-1.214;2023-12-20T06:23:53;102229.28;;;24.59;100.00
47983;BME280;33751;50.816;-1.214;2023-12-20T06:26:20;102230.67;;;24.40;100.00
47983;BME280;33751;50.816;-1.214;2023-12-20T06:28:46;102231.53;;;24.39;100.00
47983;BME280;33751;50.816;-1.214;2023-12-20T06:31:13;102228.61;;;24.78;100.00
47983;BME280;33751;50.816;-1.214;2023-12-20T06:33:40;102225.99;;;24.38;100.00
47983;BME280;33751;50.816;-1.214;2023-12-20T06:36:07;102221.76;;;24.68;100.00
47983;BME280;33751;50.816;-1.214;2023-12-20T06:38:35;102223.18;;;24.67;100.00
47983;BME280;33751;50.816;-1.214;2023-12-20T06:41:01;102225.47;;;24.53;100.00
47983;BME280;33751;50.816;-1.214;2023-12-20T06:43:28;102217.67;;;24.69;100.00
47983;BME280;33751;50.816;-1.214;2023-12-20T06:45:55;102215.23;;;24.88;100.00
47983;BME280;33751;50.816;-1.214;2023-12-20T06:48:21;102218.88;;;25.05;100.00
47983;BME280;33751;50.816;-1.214;2023-12-20T06:50:48;102223.34;;;25.16;100.00
47983;BME280;33751;50.816;-1.214;2023-12-20T06:53:14;102231.38;;;25.29;100.00
47983;BME280;33751;50.816;-1.214;2023-12-20T06:55:41;102230.07;;;25.21;100.00
47983;BME280;33751;50.816;-1.214;2023-12-20T06:58:08;102223.33;;;25.35;100.00
47983;BME280;33751;50.816;-1.214;2023-12-20T07:00:35;102214.81;;;25.20;100.00
47983;BME280;33751;50.816;-1.214;2023-12-20T07:03:02;102210.50;;;25.79;100.00
47983;BME280;33751;50.816;-1.214;2023-12-20T07:05:30;102203.32;;;25.28;100.00
47983;BME280;33751;50.816;-1.214;2023-12-20T07:07:56;102194.48;;;25.89;100.00
47983;BME280;33751;50.816;-1.214;2023-12-20T07:10:23;102189.14;;;25.96;100.00
47983;BME280;33751;50.816;-1.214;2023-12-20T07:12:50;102190.94;;;26.04;100.00
47983;BME280;33751;50.816;-1.214;2023-12-20T07:15:17;102199.03;;;26.11;100.00
47983;BME280;33751;50.816;-1.214;2023-12-20T07:17:43;102198.94;;;25.67;100.00
47983;BME280;33751;50.816;-1.214;2023-12-20T07:20:11;102196.61;;;25.98;100.00
47983;BME280;33751;50.816;-1.214;2023-12-20T07:22:37;102197.48;;;26.08;100.00
47983;BME280;33751;50.816;-1.214;2023-12-20T07:25:04;102204.43;;;26.09;100.00
47983;BME280;33751;50.816;-1.214;2023-12-20T07:27:32;102200.59;;;25.64;100.00
47983;BME280;33751;50.816;-1.214;2023-12-20T07:29:58;102198.33;;;25.86;100.00
47983;BME280;33751;50.816;-1.214;2023-12-20T07:32:25;102192.03;;;26.36;100.00
47983;BME280;33751;50.816;-1.214;2023-12-20T07:34:52;102191.95;;;25.88;100.00
47983;BME280;33751;50.816;-1.214;2023-12-20T07:37:19;102189.24;;;26.17;100.00
47983;BME280;33751;50.816;-1.214;2023-12-20T07:39:45;102190.59;;;26.00;100.00
47983;BME280;33751;50.816;-1.214;2023-12-20T07:42:12;102187.13;;;26.01;100.00
47983;BME280;33751;50.816;-1.214;2023-12-20T07:44:38;102179.13;;;26.01;100.00
47983;BME280;33751;50.816;-1.214;2023-12-20T07:47:05;102179.85;;;26.16;100.00
47983;BME280;33751;50.816;-1.214;2023-12-20T07:49:32;102185.56;;;25.83;100.00
47983;BME280;33751;50.816;-1.214;2023-12-20T07:51:59;102175.51;;;26.21;100.00
47983;BME280;33751;50.816;-1.214;2023-12-20T07:54:25;102177.58;;;26.28;100.00
47983;BME280;33751;50.816;-1.214;2023-12-20T07:56:52;102175.64;;;26.35;100.00
47983;BME280;33751;50.816;-1.214;2023-12-20T07:59:18;102176.12;;;26.37;100.00
47983;BME280;33751;50.816;-1.214;2023-12-20T08:01:45;102181.36;;;26.50;100.00
47983;BME280;33751;50.816;-1.214;2023-12-20T08:04:12;102183.89;;;26.54;100.00
47983;BME280;33751;50.816;-1.214;2023-12-20T08:06:39;102191.54;;;26.40;100.00
47983;BME280;33751;50.816;-1.214;2023-12-20T08:09:06;102192.07;;;26.48;100.00
47983;BME280;33751;50.816;-1.214;2023-12-20T08:11:34;102195.40;;;26.50;100.00
47983;BME280;33751;50.816;-1.214;2023-12-20T08:14:01;102199.29;;;26.76;100.00
47983;BME280;33751;50.816;-1.214;2023-12-20T08:16:28;102196.13;;;26.71;100.00
47983;BME280;33751;50.816;-1.214;2023-12-20T08:18:55;102197.06;;;26.84;100.00
47983;BME280;33751;50.816;-1.214;2023-12-20T08:21:22;102207.76;;;26.96;100.00
47983;BME280;33751;50.816;-1.214;2023-12-20T08:23:48;102206.80;;;26.74;100.00
47983;BME280;33751;50.816;-1.214;2023-12-20T08:26:19;102213.20;;;26.81;100.00
47983;BME280;33751;50.816;-1.214;2023-12-20T08:28:46;102224.37;;;26.94;100.00
47983;BME280;33751;50.816;-1.214;2023-12-20T08:31:14;102218.22;;;26.89;100.00
47983;BME280;33751;50.816;-1.214;2023-12-20T08:33:40;102218.35;;;27.01;100.00
47983;BME280;33751;50.816;-1.214;2023-12-20T08:36:07;102228.80;;;26.82;100.00
47983;BME280;33751;50.816;-1.214;2023-12-20T08:38:34;102227.36;;;26.90;100.00
47983;BME280;33751;50.816;-1.214;2023-12-20T08:41:01;102230.51;;;26.97;100.00
47983;BME280;33751;50.816;-1.214;2023-12-20T08:43:28;102230.28;;;27.36;100.00
47983;BME280;33751;50.816;-1.214;2023-12-20T08:45:54;102231.21;;;27.56;100.00
47983;BME280;33751;50.816;-1.214;2023-12-20T08:48:21;102237.51;;;27.16;100.00
47983;BME280;33751;50.816;-1.214;2023-12-20T08:50:48;102253.97;;;27.23;100.00
47983;BME280;33751;50.816;-1.214;2023-12-20T08:53:14;102252.98;;;26.64;100.00
47983;BME280;33751;50.816;-1.214;2023-12-20T08:55:41;102253.01;;;27.10;100.00
47983;BME280;33751;50.816;-1.214;2023-12-20T08:58:08;102249.90;;;26.97;100.00
47983;BME280;33751;50.816;-1.214;2023-12-20T09:00:35;102242.09;;;26.86;100.00
47983;BME280;33751;50.816;-1.214;2023-12-20T09:03:02;102236.16;;;26.82;100.00
47983;BME280;33751;50.816;-1.214;2023-12-20T09:05:29;102241.66;;;26.42;100.00
47983;BME280;33751;50.816;-1.214;2023-12-20T09:07:57;102233.50;;;26.83;100.00
47983;BME280;33751;50.816;-1.214;2023-12-20T09:10:23;102224.59;;;27.08;100.00
47983;BME280;33751;50.816;-1.214;2023-12-20T09:12:51;102221.93;;;26.87;100.00
47983;BME280;33751;50.816;-1.214;2023-12-20T09:15:19;102218.89;;;26.86;100.00
47983;BME280;33751;50.816;-1.214;2023-12-20T09:17:46;102204.20;;;26.92;100.00
47983;BME280;33751;50.816;-1.214;2023-12-20T09:20:12;102198.21;;;26.99;100.00
47983;BME280;33751;50.816;-1.214;2023-12-20T09:22:40;102192.87;;;27.15;100.00
47983;BME280;33751;50.816;-1.214;2023-12-20T09:25:08;102192.27;;;26.74;100.00
47983;BME280;33751;50.816;-1.214;2023-12-20T09:27:35;102186.98;;;27.30;100.00
47983;BME280;33751;50.816;-1.214;2023-12-20T09:30:02;102173.88;;;27.07;100.00
47983;BME280;33751;50.816;-1.214;2023-12-20T09:32:29;102181.06;;;27.14;100.00
47983;BME280;33751;50.816;-1.214;2023-12-20T09:34:55;102176.18;;;26.85;100.00
47983;BME280;33751;50.816;-1.214;2023-12-20T09:37:21;102177.55;;;26.91;100.00
47983;BME280;33751;50.816;-1.214;2023-12-20T09:39:48;102173.56;;;27.20;100.00
47983;BME280;33751;50.816;-1.214;2023-12-20T09:42:19;102176.01;;;27.24;100.00
47983;BME280;33751;50.816;-1.214;2023-12-20T09:44:48;102181.52;;;27.41;100.00
47983;BME280;33751;50.816;-1.214;2023-12-20T09:47:15;102187.89;;;26.95;100.00
47983;BME280;33751;50.816;-1.214;2023-12-20T09:49:46;102187.89;;;27.34;100.00
47983;BME280;33751;50.816;-1.214;2023-12-20T09:52:13;102188.03;;;27.02;100.00
47983;BME280;33751;50.816;-1.214;2023-12-20T09:54:41;102184.91;;;27.51;100.00
47983;BME280;33751;50.816;-1.214;2023-12-20T09:57:10;102193.84;;;27.29;100.00
47983;BME280;33751;50.816;-1.214;2023-12-20T09:59:37;102200.10;;;26.96;100.00
47983;BME280;33751;50.816;-1.214;2023-12-20T10:02:11;102199.23;;;27.16;100.00
47983;BME280;33751;50.816;-1.214;2023-12-20T10:04:44;102202.52;;;27.18;100.00
47983;BME280;33751;50.816;-1.214;2023-12-20T10:07:13;102208.69;;;27.11;100.00
47983;BME280;33751;50.816;-1.214;2023-12-20T10:09:40;102216.15;;;27.24;100.00
47983;BME280;33751;50.816;-1.214;2023-12-20T10:12:08;102221.34;;;27.32;100.00
47983;BME280;33751;50.816;-1.214;2023-12-20T10:14:35;102227.65;;;27.21;100.00
47983;BME280;33751;50.816;-1.214;2023-12-20T10:17:03;102224.10;;;27.11;100.00
47983;BME280;33751;50.816;-1.214;2023-12-20T10:19:30;102223.13;;;27.11;100.00
47983;BME280;33751;50.816;-1.214;2023-12-20T10:21:59;102219.77;;;27.28;100.00
47983;BME280;33751;50.816;-1.214;2023-12-20T10:24:28;102214.98;;;27.66;100.00
47983;BME280;33751;50.816;-1.214;2023-12-20T10:27:04;102211.08;;;27.26;100.00
47983;BME280;33751;50.816;-1.214;2023-12-20T10:29:33;102210.65;;;26.86;100.00
47983;BME280;33751;50.816;-1.214;2023-12-20T10:32:00;102218.85;;;27.25;100.00
47983;BME280;33751;50.816;-1.214;2023-12-20T10:34:47;102222.92;;;27.17;100.00
47983;BME280;33751;50.816;-1.214;2023-12-20T10:37:14;102215.28;;;27.37;100.00
47983;BME280;33751;50.816;-1.214;2023-12-20T10:39:42;102219.37;;;26.97;100.00
47983;BME280;33751;50.816;-1.214;2023-12-20T10:42:11;102221.96;;;27.43;100.00
47983;BME280;33751;50.816;-1.214;2023-12-20T10:44:38;102223.79;;;27.35;100.00
47983;BME280;33751;50.816;-1.214;2023-12-20T10:47:05;102223.06;;;27.34;100.00
47983;BME280;33751;50.816;-1.214;2023-12-20T10:49:36;102222.91;;;27.05;100.00
47983;BME280;33751;50.816;-1.214;2023-12-20T10:52:05;102220.34;;;26.75;100.00
47983;BME280;33751;50.816;-1.214;2023-12-20T10:54:32;102205.31;;;27.22;100.00
47983;BME280;33751;50.816;-1.214;2023-12-20T10:56:59;102202.61;;;27.13;100.00
47983;BME280;33751;50.816;-1.214;2023-12-20T10:59:28;102194.37;;;27.17;100.00
47983;BME280;33751;50.816;-1.214;2023-12-20T11:01:57;102181.60;;;26.91;100.00
47983;BME280;33751;50.816;-1.214;2023-12-20T11:04:31;102180.58;;;27.12;100.00
47983;BME280;33751;50.816;-1.214;2023-12-20T11:07:12;102187.18;;;27.12;100.00
47983;BME280;33751;50.816;-1.214;2023-12-20T11:09:47;102178.66;;;26.98;100.00
47983;BME280;33751;50.816;-1.214;2023-12-20T11:12:20;102175.45;;;27.02;100.00
47983;BME280;33751;50.816;-1.214;2023-12-20T11:14:52;102168.38;;;26.77;100.00
47983;BME280;33751;50.816;-1.214;2023-12-20T11:17:21;102156.13;;;27.02;100.00
47983;BME280;33751;50.816;-1.214;2023-12-20T11:20:05;102145.90;;;26.59;100.00
47983;BME280;33751;50.816;-1.214;2023-12-20T11:22:32;102133.20;;;26.48;100.00
47983;BME280;33751;50.816;-1.214;2023-12-20T11:25:04;102124.81;;;27.02;100.00
47983;BME280;33751;50.816;-1.214;2023-12-20T11:27:32;102120.40;;;26.82;100.00
47983;BME280;33751;50.816;-1.214;2023-12-20T11:29:59;102117.75;;;26.37;100.00
47983;BME280;33751;50.816;-1.214;2023-12-20T11:32:29;102114.94;;;26.69;100.00
47983;BME280;33751;50.816;-1.214;2023-12-20T11:34:58;102106.30;;;26.77;100.00
47983;BME280;33751;50.816;-1.214;2023-12-20T11:37:29;102105.60;;;26.41;100.00
47983;BME280;33751;50.816;-1.214;2023-12-20T11:39:56;102098.49;;;26.63;100.00
47983;BME280;33751;50.816;-1.214;2023-12-20T11:42:23;102092.25;;;26.49;100.00
47983;BME280;33751;50.816;-1.214;2023-12-20T11:44:50;102093.59;;;26.72;100.00
47983;BME280;33751;50.816;-1.214;2023-12-20T11:47:17;102093.57;;;26.71;100.00
47983;BME280;33751;50.816;-1.214;2023-12-20T11:49:44;102088.69;;;26.68;100.00
47983;BME280;33751;50.816;-1.214;2023-12-20T11:52:12;102067.46;;;26.66;100.00
47983;BME280;33751;50.816;-1.214;2023-12-20T11:54:38;102054.70;;;26.74;100.00
47983;BME280;33751;50.816;-1.214;2023-12-20T11:57:05;102058.24;;;26.64;100.00
47983;BME280;33751;50.816;-1.214;2023-12-20T11:59:32;102055.69;;;26.21;100.00
47983;BME280;33751;50.816;-1.214;2023-12-20T12:01:59;102044.78;;;26.65;100.00
47983;BME280;33751;50.816;-1.214;2023-12-20T12:04:26;102043.22;;;26.60;100.00
47983;BME280;33751;50.816;-1.214;2023-12-20T12:06:52;102034.79;;;26.57;100.00
47983;BME280;33751;50.816;-1.214;2023-12-20T12:09:19;102039.33;;;26.50;100.00
47983;BME280;33751;50.816;-1.214;2023-12-20T12:11:46;102029.79;;;26.33;100.00
47983;BME280;33751;50.816;-1.214;2023-12-20T12:14:13;102030.45;;;26.56;100.00
47983;BME280;33751;50.816;-1.214;2023-12-20T12:16:41;102023.15;;;26.54;100.00
47983;BME280;33751;50.816;-1.214;2023-12-20T12:19:20;102023.00;;;26.49;100.00
47983;BME280;33751;50.816;-1.214;2023-12-20T12:21:47;102020.79;;;26.46;100.00
47983;BME280;33751;50.816;-1.214;2023-12-20T12:24:13;102027.60;;;26.09;100.00
47983;BME280;33751;50.816;-1.214;2023-12-20T12:26:40;102033.02;;;26.06;100.00
47983;BME280;33751;50.816;-1.214;2023-12-20T12:29:07;102030.98;;;26.74;100.00
47983;BME280;33751;50.816;-1.214;2023-12-20T12:31:34;102014.73;;;26.28;100.00